createdAt,value
2018-02-25T00:00:57.689Z,5.40
2018-02-25T00:03:26.720Z,5.70
2018-02-25T00:05:55.664Z,5.50
2018-02-25T00:08:24.693Z,5.60
2018-02-25T00:10:53.600Z,5.40
2018-02-25T00:13:22.707Z,5.87
2018-02-25T00:15:52.474Z,5.80
2018-02-25T00:18:21.630Z,5.93
2018-02-25T00:20:50.708Z,5.30
2018-02-25T00:23:19.751Z,5.00
2018-02-25T00:25:48.735Z,5.27
2018-02-25T00:28:17.696Z,5.70
2018-02-25T00:32:49.222Z,5.23
2018-02-25T00:35:18.274Z,5.30
2018-02-25T00:37:47.313Z,5.33
2018-02-25T00:40:16.537Z,5.40
2018-02-25T00:42:45.706Z,5.47
2018-02-25T00:45:14.703Z,5.37
2018-02-25T00:47:43.756Z,5.27
2018-02-25T00:50:12.793Z,5.80
2018-02-25T00:52:41.675Z,5.40
2018-02-25T00:55:10.738Z,5.77
2018-02-25T00:59:12.724Z,5.10
2018-02-25T01:01:41.749Z,5.00
2018-02-25T01:04:10.737Z,5.40
2018-02-25T01:06:39.724Z,5.23
2018-02-25T01:09:08.768Z,5.47
2018-02-25T01:11:37.746Z,5.57
2018-02-25T01:14:06.751Z,5.27
2018-02-25T01:16:35.764Z,5.07
2018-02-25T01:19:04.846Z,5.20
2018-02-25T01:21:33.761Z,5.10
2018-02-25T01:24:02.668Z,4.80
2018-02-25T01:26:31.699Z,5.07
2018-02-25T01:29:01.539Z,5.40
2018-02-25T01:31:30.718Z,5.73
2018-02-25T01:33:59.746Z,5.50
2018-02-25T01:36:28.718Z,4.57
2018-02-25T01:38:57.688Z,5.67
2018-02-25T01:41:26.757Z,5.27
2018-02-25T01:46:19.458Z,5.00
2018-02-25T01:48:48.664Z,4.63
2018-02-25T01:51:17.632Z,4.67
2018-02-25T01:53:46.751Z,5.13
2018-02-25T01:56:15.719Z,5.30
2018-02-25T02:01:27.704Z,5.17
2018-02-25T02:03:56.748Z,5.40
2018-02-25T02:06:25.763Z,5.27
2018-02-25T02:08:54.738Z,5.13
2018-02-25T02:11:23.622Z,5.13
2018-02-25T02:13:52.706Z,5.47
2018-02-25T02:16:21.660Z,5.57
2018-02-25T02:18:50.698Z,5.50
2018-02-25T02:21:19.649Z,5.53
2018-02-25T02:23:48.524Z,5.57
2018-02-25T02:26:17.587Z,5.17
2018-02-25T02:28:46.560Z,5.30
2018-02-25T02:31:15.618Z,4.87
2018-02-25T02:33:44.600Z,5.80
2018-02-25T02:36:13.762Z,4.83
2018-02-25T02:38:42.735Z,5.40
2018-02-25T02:41:11.682Z,4.70
2018-02-25T02:43:40.711Z,5.43
2018-02-25T02:46:09.769Z,5.87
2018-02-25T02:48:38.739Z,5.13
2018-02-25T02:51:07.771Z,5.07
2018-02-25T02:53:36.752Z,5.37
2018-02-25T02:56:05.749Z,4.87
2018-02-25T02:58:34.736Z,5.07
2018-02-25T03:01:03.716Z,5.07
2018-02-25T03:03:32.692Z,5.13
2018-02-25T03:06:02.577Z,5.33
2018-02-25T03:13:23.743Z,5.23
2018-02-25T03:15:52.716Z,5.47
2018-02-25T03:18:21.660Z,5.50
2018-02-25T03:20:50.659Z,5.23
2018-02-25T03:23:19.738Z,5.33
2018-02-25T03:25:48.675Z,5.87
2018-02-25T03:28:17.708Z,4.90
2018-02-25T03:30:46.756Z,4.87
2018-02-25T03:33:15.976Z,5.73
2018-02-25T03:39:01.735Z,5.20
2018-02-25T03:41:30.696Z,4.80
2018-02-25T03:43:59.821Z,5.10
2018-02-25T03:46:28.704Z,5.10
2018-02-25T03:48:57.914Z,5.40
2018-02-25T03:53:55.706Z,5.43
2018-02-25T03:56:24.696Z,5.47
2018-02-25T03:58:53.718Z,5.60
2018-02-25T04:01:22.760Z,5.33
2018-02-25T04:03:51.747Z,5.40
2018-02-25T04:06:20.879Z,5.90
2018-02-25T04:08:50.248Z,5.30
2018-02-25T04:11:19.724Z,5.57
2018-02-25T04:15:04.724Z,6.07
2018-02-25T04:17:33.720Z,5.57
2018-02-25T04:20:02.892Z,5.63
2018-02-25T04:27:29.173Z,6.40
2018-02-25T04:29:58.708Z,5.70
2018-02-25T04:32:27.780Z,6.00
2018-02-25T04:34:56.914Z,6.00
2018-02-25T04:39:54.906Z,5.97
2018-02-25T04:47:37.727Z,6.77
2018-02-25T04:50:07.034Z,6.07
2018-02-25T04:52:36.317Z,6.30
2018-02-25T04:55:05.700Z,6.10
2018-02-25T04:57:34.715Z,6.70
2018-02-25T05:00:03.765Z,5.80
2018-02-25T05:02:32.712Z,5.60
2018-02-25T05:05:02.253Z,6.00
2018-02-25T05:07:31.900Z,5.77
2018-02-25T05:12:29.464Z,5.60
2018-02-25T05:18:29.692Z,5.77
2018-02-25T05:20:58.776Z,6.33
2018-02-25T05:23:27.804Z,6.40
2018-02-25T05:25:56.814Z,6.10
2018-02-25T05:28:25.777Z,6.20
2018-02-25T05:30:54.798Z,5.63
2018-02-25T05:33:23.775Z,5.77
2018-02-25T05:35:53.260Z,5.90
2018-02-25T05:38:22.687Z,5.70
2018-02-25T05:40:52.184Z,5.77
2018-02-25T05:43:21.721Z,6.37
2018-02-25T05:49:23.705Z,6.47
2018-02-25T05:54:37.796Z,5.93
2018-02-25T05:57:06.715Z,6.37
2018-02-25T05:59:35.772Z,5.97
2018-02-25T06:02:05.234Z,6.10
2018-02-25T06:04:34.227Z,5.70
2018-02-25T06:07:03.769Z,5.83
2018-02-25T06:09:32.752Z,5.87
2018-02-25T06:12:01.755Z,5.67
2018-02-25T06:14:30.673Z,5.77
2018-02-25T06:16:59.712Z,5.90
2018-02-25T06:19:28.776Z,6.00
2018-02-25T06:21:57.700Z,6.37
2018-02-25T06:24:27.526Z,6.30
2018-02-25T06:26:56.519Z,6.20
2018-02-25T06:29:25.728Z,5.93
2018-02-25T06:31:55.184Z,5.70
2018-02-25T06:34:23.870Z,6.13
2018-02-25T06:36:52.753Z,5.90
2018-02-25T06:39:21.723Z,5.67
2018-02-25T06:41:52.879Z,6.10
2018-02-25T06:44:21.694Z,5.73
2018-02-25T06:46:50.706Z,6.13
2018-02-25T06:49:19.714Z,6.10
2018-02-25T06:51:48.761Z,6.47
2018-02-25T06:54:17.716Z,6.80
2018-02-25T06:56:46.873Z,7.53
2018-02-25T06:59:15.840Z,9.13
2018-02-25T07:01:44.630Z,9.57
2018-02-25T07:04:13.680Z,9.33
2018-02-25T07:06:42.619Z,9.23
2018-02-25T07:09:11.691Z,8.03
2018-02-25T07:11:40.609Z,7.97
2018-02-25T07:14:09.696Z,8.30
2018-02-25T07:16:39.651Z,7.80
2018-02-25T07:19:08.647Z,8.33
2018-02-25T07:24:14.688Z,7.13
2018-02-25T07:27:33.224Z,8.00
2018-02-25T07:30:02.580Z,7.13
2018-02-25T07:32:31.737Z,6.57
2018-02-25T07:35:02.434Z,6.70
2018-02-25T07:39:47.614Z,6.90
2018-02-25T07:42:16.701Z,8.73
2018-02-25T07:44:45.759Z,10.80
2018-02-25T07:47:14.752Z,11.37
2018-02-25T07:49:43.718Z,12.73
2018-02-25T07:52:12.695Z,12.50
2018-02-25T07:54:41.710Z,12.37
2018-02-25T07:57:10.680Z,11.23
2018-02-25T07:59:39.695Z,10.20
2018-02-25T08:02:08.783Z,10.77
2018-02-25T08:05:46.677Z,10.20
2018-02-25T08:08:16.686Z,10.40
2018-02-25T08:13:15.570Z,10.13
2018-02-25T08:18:22.547Z,10.47
2018-02-25T08:20:51.549Z,9.73
2018-02-25T08:23:20.684Z,10.53
2018-02-25T08:25:49.635Z,10.67
2018-02-25T08:28:18.633Z,10.13
2018-02-25T08:30:47.746Z,10.00
2018-02-25T08:33:16.689Z,9.80
2018-02-25T08:35:45.890Z,9.30
2018-02-25T08:40:43.563Z,9.83
2018-02-25T08:43:12.684Z,8.70
2018-02-25T08:45:41.603Z,9.63
2018-02-25T08:48:10.710Z,10.30
2018-02-25T08:51:31.641Z,13.10
2018-02-25T08:54:00.682Z,14.50
2018-02-25T08:56:29.691Z,13.07
2018-02-25T08:58:58.758Z,11.57
2018-02-25T09:01:27.672Z,10.77
2018-02-25T09:03:56.700Z,10.17
2018-02-25T09:06:25.641Z,10.50
2018-02-25T09:08:54.715Z,9.67
2018-02-25T09:11:23.742Z,10.00
2018-02-25T09:13:52.698Z,10.43
2018-02-25T09:16:21.672Z,10.37
2018-02-25T09:18:50.681Z,10.73
2018-02-25T09:22:47.619Z,9.87
2018-02-25T09:25:16.765Z,10.10
2018-02-25T09:27:45.680Z,9.60
2018-02-25T09:30:14.768Z,9.53
2018-02-25T09:34:49.657Z,10.33
2018-02-25T09:37:18.630Z,19.17
2018-02-25T09:39:47.668Z,19.70
2018-02-25T09:42:16.785Z,23.33
2018-02-25T09:49:05.416Z,16.73
2018-02-25T09:51:34.334Z,16.93
2018-02-25T09:56:47.307Z,15.23
2018-02-25T09:59:16.652Z,14.17
2018-02-25T10:01:45.687Z,14.17
2018-02-25T10:04:14.660Z,13.93
2018-02-25T10:06:43.692Z,13.10
2018-02-25T10:09:12.700Z,13.80
2018-02-25T10:11:41.648Z,13.23
2018-02-25T10:14:10.684Z,13.33
2018-02-25T10:16:39.594Z,13.87
2018-02-25T10:19:08.560Z,12.47
2018-02-25T10:21:37.633Z,12.80
2018-02-25T10:24:06.661Z,11.90
2018-02-25T10:26:35.596Z,12.10
2018-02-25T10:29:04.696Z,12.13
2018-02-25T10:31:33.627Z,11.63
2018-02-25T10:34:02.661Z,11.67
2018-02-25T10:36:31.648Z,11.57
2018-02-25T10:39:00.690Z,12.10
2018-02-25T10:45:45.662Z,11.40
2018-02-25T10:48:14.770Z,11.13
2018-02-25T10:50:43.618Z,11.40
2018-02-25T10:53:12.733Z,11.57
2018-02-25T10:55:42.445Z,10.53
2018-02-25T11:01:02.674Z,10.63
2018-02-25T11:03:31.619Z,10.73
2018-02-25T11:06:00.724Z,10.67
2018-02-25T11:08:29.748Z,11.30
2018-02-25T11:10:58.698Z,9.50
2018-02-25T11:13:27.695Z,10.27
2018-02-25T11:15:56.732Z,9.30
2018-02-25T11:18:25.692Z,10.20
2018-02-25T11:20:54.615Z,10.13
2018-02-25T11:23:23.736Z,9.37
2018-02-25T11:26:29.631Z,9.93
2018-02-25T11:28:58.867Z,9.77
2018-02-25T11:31:28.018Z,10.13
2018-02-25T11:36:25.744Z,9.50
2018-02-25T11:40:02.621Z,9.57
2018-02-25T11:42:31.636Z,10.30
2018-02-25T11:45:00.654Z,10.13
2018-02-25T11:47:29.703Z,9.80
2018-02-25T11:49:58.675Z,9.43
2018-02-25T11:54:14.730Z,9.77
2018-02-25T11:56:44.728Z,9.40
2018-02-25T11:59:13.746Z,9.17
2018-02-25T12:01:42.854Z,9.67
2018-02-25T12:06:25.762Z,9.50
2018-02-25T12:08:54.776Z,9.20
2018-02-25T12:11:23.774Z,9.23
2018-02-25T12:13:52.774Z,9.00
2018-02-25T12:16:21.655Z,9.20
2018-02-25T12:18:50.778Z,8.83
2018-02-25T12:21:19.674Z,9.10
2018-02-25T12:23:48.623Z,9.00
2018-02-25T12:26:17.720Z,9.00
2018-02-25T12:28:46.668Z,8.53
2018-02-25T12:31:15.672Z,8.60
2018-02-25T12:33:44.680Z,9.23
2018-02-25T12:36:14.057Z,8.33
2018-02-25T12:38:43.704Z,8.77
2018-02-25T12:41:12.715Z,9.37
2018-02-25T12:43:41.718Z,9.00
2018-02-25T12:46:10.729Z,9.23
2018-02-25T12:48:40.113Z,8.50
2018-02-25T12:51:09.789Z,8.67
2018-02-25T12:53:38.676Z,8.27
2018-02-25T12:56:07.764Z,9.20
2018-02-25T12:58:36.882Z,8.60
2018-02-25T13:01:37.664Z,9.23
2018-02-25T13:04:06.679Z,9.47
2018-02-25T13:09:09.683Z,8.20
2018-02-25T13:11:38.764Z,8.73
2018-02-25T13:14:07.712Z,9.13
2018-02-25T13:19:15.322Z,8.03
2018-02-25T13:21:44.341Z,8.10
2018-02-25T13:24:13.654Z,9.10
2018-02-25T13:26:42.735Z,9.60
2018-02-25T13:29:11.750Z,10.27
2018-02-25T13:31:40.711Z,14.57
2018-02-25T13:35:44.733Z,14.33
2018-02-25T13:39:29.746Z,12.03
2018-02-25T13:42:00.205Z,11.83
2018-02-25T13:44:29.793Z,11.80
2018-02-25T13:46:58.822Z,12.00
2018-02-25T13:49:28.772Z,11.03
2018-02-25T13:52:09.716Z,10.53
2018-02-25T13:54:39.496Z,11.30
2018-02-25T13:57:08.794Z,9.70
2018-02-25T13:59:37.716Z,9.70
2018-02-25T14:03:18.676Z,9.73
2018-02-25T14:05:47.704Z,10.13
2018-02-25T14:08:16.769Z,11.17
2018-02-25T14:13:02.624Z,21.53
2018-02-25T14:15:31.712Z,27.97
2018-02-25T14:18:40.659Z,22.10
2018-02-25T14:29:34.695Z,16.93
2018-02-25T14:32:04.032Z,15.33
2018-02-25T14:37:01.722Z,15.60
2018-02-25T14:39:30.680Z,16.53
2018-02-25T14:42:00.459Z,15.57
2018-02-25T14:44:29.773Z,16.07
2018-02-25T14:46:58.653Z,14.83
2018-02-25T14:49:27.731Z,13.93
2018-02-25T14:51:56.727Z,13.37
2018-02-25T14:54:26.884Z,13.80
2018-02-25T14:56:55.721Z,12.80
2018-02-25T14:59:29.293Z,12.53
2018-02-25T15:01:58.718Z,13.07
2018-02-25T15:04:28.536Z,13.83
2018-02-25T15:06:58.476Z,13.47
2018-02-25T15:12:46.676Z,13.10
2018-02-25T15:15:15.860Z,13.17
2018-02-25T15:17:45.240Z,14.60
2018-02-25T15:20:14.729Z,15.10
2018-02-25T15:22:44.012Z,15.33
2018-02-25T15:29:31.730Z,15.17
2018-02-25T15:32:00.675Z,14.67
2018-02-25T15:34:29.749Z,13.27
2018-02-25T15:36:58.647Z,13.63
2018-02-25T15:39:27.676Z,13.47
2018-02-25T15:41:56.749Z,13.70
2018-02-25T15:46:20.670Z,13.80
2018-02-25T15:48:49.664Z,13.57
2018-02-25T15:51:18.707Z,12.90
2018-02-25T15:53:47.643Z,13.67
2018-02-25T15:56:16.702Z,12.77
2018-02-25T15:58:45.679Z,12.70
2018-02-25T16:01:14.757Z,14.03
2018-02-25T16:03:43.648Z,13.83
2018-02-25T16:07:52.720Z,15.43
2018-02-25T16:10:22.201Z,15.63
2018-02-25T16:12:51.758Z,15.93
2018-02-25T16:17:05.333Z,22.97
2018-02-25T16:19:34.425Z,23.73
2018-02-25T16:22:03.633Z,20.87
2018-02-25T16:24:32.710Z,20.47
2018-02-25T16:27:01.856Z,18.70
2018-02-25T16:29:30.698Z,18.13
2018-02-25T16:31:59.749Z,17.80
2018-02-25T16:34:29.663Z,18.90
2018-02-25T16:36:58.750Z,22.53
2018-02-25T16:39:27.688Z,23.80
2018-02-25T16:41:56.668Z,21.60
2018-02-25T16:44:25.708Z,20.57
2018-02-25T16:46:54.727Z,19.43
2018-02-25T16:51:01.666Z,17.90
2018-02-25T16:53:30.748Z,16.57
2018-02-25T16:55:59.679Z,17.13
2018-02-25T16:59:02.517Z,17.03
2018-02-25T17:01:31.655Z,17.80
2018-02-25T17:04:00.699Z,17.90
2018-02-25T17:08:34.297Z,16.40
2018-02-25T17:12:55.718Z,16.67
2018-02-25T17:15:24.674Z,16.03
2018-02-25T17:17:53.642Z,15.07
2018-02-25T17:20:23.436Z,14.30
2018-02-25T17:35:50.246Z,13.47
2018-02-25T17:38:19.687Z,14.10
2018-02-25T17:40:48.717Z,16.07
2018-02-25T17:43:17.701Z,15.83
2018-02-25T17:45:46.838Z,16.97
2018-02-25T17:48:15.669Z,16.43
2018-02-25T17:50:44.732Z,16.80
2018-02-25T17:53:14.311Z,16.70
2018-02-25T18:00:46.563Z,15.20
2018-02-25T18:03:15.676Z,13.70
2018-02-25T18:05:44.731Z,13.67
2018-02-25T18:08:14.193Z,14.10
2018-02-25T18:10:43.678Z,12.67
2018-02-25T18:13:13.185Z,13.03
2018-02-25T18:17:53.176Z,13.00
2018-02-25T18:20:22.469Z,12.40
2018-02-25T18:26:54.475Z,12.50
2018-02-25T18:29:23.758Z,12.07
2018-02-25T18:31:55.893Z,12.37
2018-02-25T18:36:53.684Z,11.60
2018-02-25T18:39:22.668Z,11.40
2018-02-25T18:41:51.798Z,12.10
2018-02-25T18:44:21.378Z,11.10
2018-02-25T18:46:50.514Z,11.63
2018-02-25T18:49:19.705Z,13.17
2018-02-25T18:51:48.707Z,13.57
2018-02-25T18:54:18.693Z,13.40
2018-02-25T18:56:47.607Z,12.50
2018-02-25T18:59:44.625Z,12.23
2018-02-25T19:02:14.216Z,12.53
2018-02-25T19:04:43.413Z,12.97
2018-02-25T19:07:12.615Z,13.20
2018-02-25T19:09:41.742Z,13.10
2018-02-25T19:12:10.748Z,11.70
2018-02-25T19:14:39.640Z,11.43
2018-02-25T19:21:04.628Z,11.10
2018-02-25T19:23:33.875Z,11.20
2018-02-25T19:26:02.717Z,10.95
2018-02-25T19:29:40.716Z,11.00
2018-02-25T19:33:31.465Z,11.60
2018-02-25T19:36:05.781Z,9.93
2018-02-25T19:38:40.504Z,10.50
2018-02-25T19:45:29.706Z,10.23
2018-02-25T19:50:24.434Z,9.23
2018-02-25T19:52:53.640Z,9.77
2018-02-25T19:55:22.765Z,9.43
2018-02-25T19:57:51.759Z,10.37
2018-02-25T20:00:20.742Z,10.17
2018-02-25T20:02:49.693Z,9.60
2018-02-25T20:05:18.673Z,9.73
2018-02-25T20:08:08.097Z,9.67
2018-02-25T20:10:41.660Z,10.77
2018-02-25T20:13:10.714Z,9.80
2018-02-25T20:15:39.687Z,10.63
2018-02-25T20:18:08.695Z,10.10
2018-02-25T20:20:37.671Z,9.63
2018-02-25T20:23:06.671Z,9.60
2018-02-25T20:25:36.230Z,9.50
2018-02-25T20:28:05.595Z,9.33
2018-02-25T20:30:34.720Z,9.67
2018-02-25T20:33:03.746Z,8.90
2018-02-25T20:37:24.660Z,9.17
2018-02-25T20:39:53.690Z,9.70
2018-02-25T20:42:24.909Z,9.10
2018-02-25T20:47:42.637Z,9.97
2018-02-25T20:50:11.721Z,9.40
2018-02-25T20:52:40.699Z,10.60
2018-02-25T20:55:09.653Z,12.00
2018-02-25T20:57:38.684Z,12.47
2018-02-25T21:00:08.626Z,11.67
2018-02-25T21:02:37.749Z,11.53
2018-02-25T21:05:06.704Z,11.27
2018-02-25T21:07:35.738Z,10.93
2018-02-25T21:13:40.670Z,10.60
2018-02-25T21:16:10.242Z,11.00
2018-02-25T21:18:39.793Z,10.20
2018-02-25T21:22:38.616Z,10.07
2018-02-25T21:25:07.777Z,10.00
2018-02-25T21:27:36.677Z,9.70
2018-02-25T21:33:05.858Z,9.43
2018-02-25T21:35:35.440Z,9.33
2018-02-25T21:38:04.652Z,9.17
2018-02-25T21:42:16.698Z,9.63
2018-02-25T21:44:45.756Z,10.07
2018-02-25T21:47:14.692Z,10.30
2018-02-25T21:49:43.721Z,9.60
2018-02-25T21:52:12.702Z,9.33
2018-02-25T21:54:47.589Z,9.47
2018-02-25T21:57:22.557Z,9.07
2018-02-25T21:59:57.541Z,9.93
2018-02-25T22:07:11.426Z,12.20
2018-02-25T22:09:40.378Z,11.47
2018-02-25T22:12:09.241Z,10.83
2018-02-25T22:14:38.685Z,10.40
2018-02-25T22:17:07.610Z,11.87
2018-02-25T22:19:36.632Z,11.47
2018-02-25T22:22:06.529Z,10.20
2018-02-25T22:24:35.621Z,9.90
2018-02-25T22:27:04.673Z,9.30
2018-02-25T22:29:33.676Z,9.57
2018-02-25T22:32:02.727Z,9.37
2018-02-25T22:34:31.673Z,9.60
2018-02-25T22:37:00.728Z,12.47
2018-02-25T22:42:44.643Z,13.23
2018-02-25T22:47:52.477Z,13.30
2018-02-25T22:50:21.498Z,13.00
2018-02-25T22:52:50.762Z,12.53
2018-02-25T22:57:22.643Z,11.60
2018-02-25T23:00:57.754Z,11.47
2018-02-25T23:03:53.314Z,10.67
2018-02-25T23:06:22.700Z,10.93
2018-02-25T23:08:51.769Z,9.70
2018-02-25T23:11:20.719Z,13.77
2018-02-25T23:13:49.632Z,17.30
2018-02-25T23:16:18.687Z,15.33
2018-02-25T23:18:47.721Z,14.57
2018-02-25T23:22:50.625Z,13.93
2018-02-25T23:25:19.726Z,13.63
2018-02-25T23:27:48.682Z,12.90
2018-02-25T23:30:17.686Z,12.70
2018-02-25T23:32:46.759Z,12.27
2018-02-25T23:35:15.714Z,11.73
2018-02-25T23:37:44.619Z,11.53
2018-02-25T23:42:59.302Z,17.00
2018-02-25T23:45:28.221Z,22.00
2018-02-25T23:47:57.465Z,22.37
2018-02-25T23:50:26.484Z,23.67
2018-02-25T23:52:55.480Z,22.30
2018-02-25T23:57:47.296Z,20.83
